createdAt,value
2022-08-02T00:00:41.977Z,62.54
2022-08-02T00:03:09.773Z,62.80
2022-08-02T00:05:37.125Z,62.72
2022-08-02T00:08:04.933Z,62.63
2022-08-02T00:10:32.800Z,63.02
2022-08-02T00:13:00.784Z,62.88
2022-08-02T00:15:28.506Z,62.51
2022-08-02T00:17:55.813Z,63.21
2022-08-02T00:20:23.349Z,63.02
2022-08-02T00:22:50.634Z,62.38
2022-08-02T00:25:18.388Z,62.77
2022-08-02T00:27:45.571Z,62.97
2022-08-02T00:30:13.616Z,62.97
2022-08-02T00:32:41.887Z,62.60
2022-08-02T00:35:09.580Z,61.85
2022-08-02T00:37:41.966Z,62.19
2022-08-02T00:40:10.881Z,62.18
2022-08-02T00:42:39.558Z,62.04
2022-08-02T00:45:07.520Z,61.67
2022-08-02T00:47:35.230Z,60.96
2022-08-02T00:50:02.740Z,61.35
2022-08-02T00:52:30.806Z,61.52
2022-08-02T00:54:58.283Z,61.59
2022-08-02T00:57:25.636Z,61.64
2022-08-02T00:59:53.162Z,61.91
2022-08-02T01:02:20.691Z,61.89
2022-08-02T01:04:48.061Z,61.93
2022-08-02T01:07:16.023Z,61.92
2022-08-02T01:09:44.894Z,62.11
2022-08-02T01:12:13.139Z,62.09
2022-08-02T01:14:46.928Z,62.42
2022-08-02T01:17:45.181Z,62.29
2022-08-02T01:20:18.701Z,62.55
2022-08-02T01:23:01.946Z,63.11
2022-08-02T01:25:47.862Z,63.17
2022-08-02T01:28:39.360Z,62.89
2022-08-02T01:31:40.921Z,63.09
2022-08-02T01:34:30.217Z,63.34
2022-08-02T01:37:18.557Z,63.36
2022-08-02T01:39:48.886Z,64.28
2022-08-02T01:42:18.461Z,64.01
2022-08-02T01:44:48.355Z,64.04
2022-08-02T01:47:26.443Z,63.88
2022-08-02T01:49:57.860Z,64.11
2022-08-02T01:52:29.132Z,63.86
2022-08-02T01:55:18.519Z,63.49
2022-08-02T01:58:01.236Z,63.29
2022-08-02T02:00:34.030Z,62.78
2022-08-02T02:03:02.965Z,62.65
2022-08-02T02:05:32.585Z,63.06
2022-08-02T02:08:05.119Z,62.47
2022-08-02T02:10:34.508Z,62.20
2022-08-02T02:13:05.599Z,60.70
2022-08-02T02:15:35.841Z,58.79
2022-08-02T02:18:13.731Z,57.30
2022-08-02T02:20:43.755Z,55.53
2022-08-02T02:23:13.373Z,53.75
2022-08-02T02:25:46.629Z,52.21
2022-08-02T02:28:24.954Z,50.88
2022-08-02T02:30:59.516Z,49.58
2022-08-02T02:33:29.601Z,49.19
2022-08-02T02:35:59.698Z,49.44
2022-08-02T02:38:32.248Z,50.08
2022-08-02T02:41:03.225Z,50.82
2022-08-02T02:43:33.818Z,50.91
2022-08-02T02:46:03.972Z,51.78
2022-08-02T02:48:32.231Z,52.52
2022-08-02T02:51:03.656Z,52.75
2022-08-02T02:54:33.117Z,53.40
2022-08-02T02:56:21.283Z,53.94
2022-08-02T02:58:48.843Z,54.29
2022-08-02T03:01:55.180Z,54.70
2022-08-02T03:04:16.293Z,54.54
2022-08-02T03:06:43.816Z,54.67
2022-08-02T03:09:11.698Z,54.81
2022-08-02T03:11:40.547Z,52.10
2022-08-02T03:14:11.438Z,48.46
2022-08-02T03:16:46.272Z,45.70
2022-08-02T03:19:14.956Z,42.64
2022-08-02T03:21:44.366Z,40.23
2022-08-02T03:24:11.978Z,38.73
2022-08-02T03:26:39.642Z,37.37
2022-08-02T03:29:09.988Z,35.87
2022-08-02T03:31:41.391Z,34.34
2022-08-02T03:34:09.548Z,32.74
2022-08-02T03:36:38.093Z,31.94
2022-08-02T03:39:07.399Z,30.78
2022-08-02T03:41:37.190Z,30.46
2022-08-02T03:44:05.690Z,29.25
2022-08-02T03:46:34.401Z,29.04
2022-08-02T03:49:02.757Z,28.83
2022-08-02T03:51:30.889Z,30.44
2022-08-02T03:53:58.625Z,31.13
2022-08-02T03:56:26.530Z,31.87
2022-08-02T03:59:12.851Z,32.97
2022-08-02T04:01:40.641Z,33.61
2022-08-02T04:04:08.357Z,34.40
2022-08-02T04:06:39.871Z,34.86
2022-08-02T04:09:09.952Z,35.10
2022-08-02T04:11:38.375Z,35.33
2022-08-02T04:14:11.068Z,34.97
2022-08-02T04:16:46.029Z,34.50
2022-08-02T04:19:38.543Z,35.13
2022-08-02T04:22:12.123Z,34.32
2022-08-02T04:24:44.991Z,34.08
2022-08-02T04:27:49.327Z,33.62
2022-08-02T04:30:01.938Z,31.44
2022-08-02T04:32:32.760Z,31.54
2022-08-02T04:38:08.167Z,32.58
2022-08-02T04:40:36.856Z,32.81
2022-08-02T04:43:04.750Z,32.98
2022-08-02T04:45:32.931Z,32.47
2022-08-02T04:48:07.389Z,32.07
2022-08-02T04:50:35.912Z,31.21
2022-08-02T04:53:04.449Z,30.06
2022-08-02T04:55:31.858Z,27.97
2022-08-02T04:57:59.673Z,26.49
2022-08-02T05:00:28.901Z,24.38
2022-08-02T05:02:57.298Z,23.64
2022-08-02T05:05:25.461Z,22.43
2022-08-02T05:07:53.171Z,22.84
2022-08-02T05:10:20.798Z,22.29
2022-08-02T05:12:48.260Z,21.68
2022-08-02T05:15:18.591Z,21.30
2022-08-02T05:17:48.282Z,21.34
2022-08-02T05:20:18.146Z,22.42
2022-08-02T05:22:46.329Z,22.99
2022-08-02T05:25:14.159Z,22.30
2022-08-02T05:27:42.057Z,22.03
2022-08-02T05:30:10.135Z,23.08
2022-08-02T05:32:46.211Z,23.00
2022-08-02T05:35:13.836Z,21.65
2022-08-02T05:37:42.205Z,20.08
2022-08-02T05:40:12.855Z,20.73
2022-08-02T05:42:42.942Z,21.30
2022-08-02T05:45:11.198Z,23.35
2022-08-02T05:47:39.206Z,22.71
2022-08-02T05:50:08.432Z,22.40
2022-08-02T05:52:46.803Z,21.18
2022-08-02T05:55:27.812Z,20.53
2022-08-02T05:57:55.353Z,21.68
2022-08-02T06:00:23.002Z,22.39
2022-08-02T06:02:53.017Z,23.13
2022-08-02T06:05:21.492Z,24.40
2022-08-02T06:07:50.246Z,25.40
2022-08-02T06:10:22.063Z,25.86
2022-08-02T06:13:02.059Z,25.11
2022-08-02T06:15:30.442Z,25.46
2022-08-02T06:17:59.099Z,25.70
2022-08-02T06:20:28.253Z,24.76
2022-08-02T06:22:58.834Z,24.72
2022-08-02T06:25:50.940Z,25.14
2022-08-02T06:28:14.471Z,25.67
2022-08-02T06:30:43.925Z,25.84
2022-08-02T06:33:12.795Z,26.37
2022-08-02T06:36:02.496Z,26.78
2022-08-02T06:38:38.545Z,25.92
2022-08-02T06:41:09.123Z,24.87
2022-08-02T06:43:47.246Z,23.81
2022-08-02T06:46:37.765Z,22.49
2022-08-02T06:49:04.174Z,20.97
2022-08-02T06:51:32.105Z,20.67
2022-08-02T06:53:59.450Z,20.52
2022-08-02T06:56:26.880Z,20.31
2022-08-02T06:58:54.606Z,20.48
2022-08-02T07:01:22.070Z,20.74
2022-08-02T07:03:49.439Z,21.00
2022-08-02T07:06:17.169Z,20.09
2022-08-02T07:08:59.506Z,19.08
2022-08-02T07:11:31.992Z,19.40
2022-08-02T07:13:59.210Z,19.76
2022-08-02T07:16:26.522Z,20.03
2022-08-02T07:18:54.489Z,19.58
2022-08-02T07:21:57.162Z,18.64
2022-08-02T07:24:09.673Z,18.31
2022-08-02T07:26:55.214Z,17.37
2022-08-02T07:29:24.483Z,17.09
2022-08-02T07:31:51.795Z,16.95
2022-08-02T07:34:19.110Z,16.82
2022-08-02T07:36:46.826Z,16.22
2022-08-02T07:39:16.787Z,15.58
2022-08-02T07:41:46.526Z,16.18
2022-08-02T07:44:14.497Z,15.96
2022-08-02T07:46:42.545Z,15.65
2022-08-02T07:49:09.845Z,15.76
2022-08-02T07:51:37.678Z,15.43
2022-08-02T07:54:05.381Z,17.14
2022-08-02T07:56:32.613Z,17.92
2022-08-02T07:59:00.172Z,18.01
2022-08-02T08:01:27.853Z,18.54
2022-08-02T08:03:55.522Z,20.47
2022-08-02T08:06:29.030Z,20.59
2022-08-02T08:08:57.540Z,20.25
2022-08-02T08:11:25.920Z,21.08
2022-08-02T08:13:53.415Z,22.04
2022-08-02T08:16:21.592Z,23.41
2022-08-02T08:18:49.234Z,24.38
2022-08-02T08:21:16.815Z,25.05
2022-08-02T08:23:44.391Z,25.30
2022-08-02T08:26:15.657Z,25.15
2022-08-02T08:28:43.370Z,26.23
2022-08-02T08:31:11.002Z,26.72
2022-08-02T08:33:38.524Z,27.63
2022-08-02T08:36:06.096Z,27.86
2022-08-02T08:38:33.362Z,28.72
2022-08-02T08:41:00.823Z,28.40
2022-08-02T08:43:28.236Z,28.65
2022-08-02T08:45:56.490Z,29.26
2022-08-02T08:48:30.556Z,29.86
2022-08-02T08:51:16.486Z,30.67
2022-08-02T08:53:44.827Z,31.31
2022-08-02T08:56:16.002Z,31.88
2022-08-02T08:58:45.495Z,31.33
2022-08-02T09:01:13.889Z,31.21
2022-08-02T09:03:41.331Z,31.17
2022-08-02T09:06:08.768Z,31.29
2022-08-02T09:08:36.070Z,31.21
2022-08-02T09:11:12.929Z,31.02
2022-08-02T09:13:59.050Z,31.04
2022-08-02T09:16:37.261Z,31.01
2022-08-02T09:19:22.396Z,31.84
2022-08-02T09:21:51.430Z,32.01
2022-08-02T09:24:21.007Z,32.53
2022-08-02T09:26:49.280Z,32.97
2022-08-02T09:29:18.072Z,32.91
2022-08-02T09:31:50.215Z,32.77
2022-08-02T09:34:20.038Z,32.19
2022-08-02T09:36:48.584Z,33.09
2022-08-02T09:39:24.091Z,33.03
2022-08-02T09:41:51.653Z,32.60
2022-08-02T09:44:18.939Z,32.99
2022-08-02T09:46:48.097Z,33.23
2022-08-02T09:49:17.186Z,32.29
2022-08-02T09:51:47.788Z,32.57
2022-08-02T09:54:19.857Z,32.60
2022-08-02T09:56:48.203Z,33.16
2022-08-02T09:59:17.535Z,33.33
2022-08-02T10:01:50.809Z,32.85
2022-08-02T10:04:30.614Z,33.55
2022-08-02T10:07:00.065Z,33.75
2022-08-02T10:09:29.145Z,33.95
2022-08-02T10:11:57.406Z,33.45
2022-08-02T10:14:26.929Z,32.73
2022-08-02T10:16:55.038Z,32.74
2022-08-02T10:20:00.589Z,32.07
2022-08-02T10:22:15.514Z,32.41
2022-08-02T10:24:48.237Z,32.14
2022-08-02T10:27:21.163Z,32.45
2022-08-02T10:29:54.667Z,31.43
2022-08-02T10:32:42.701Z,30.94
2022-08-02T10:35:20.094Z,30.95
2022-08-02T10:37:56.908Z,31.05
2022-08-02T10:40:26.918Z,31.26
2022-08-02T10:43:01.069Z,30.90
2022-08-02T10:45:29.559Z,30.85
2022-08-02T10:48:03.924Z,31.13
2022-08-02T10:50:46.790Z,32.11
2022-08-02T10:53:31.560Z,32.46
2022-08-02T10:56:04.943Z,32.53
2022-08-02T10:58:34.464Z,32.45
2022-08-02T11:01:26.980Z,32.64
2022-08-02T11:04:10.084Z,33.75
2022-08-02T11:07:07.039Z,33.25
2022-08-02T11:09:34.844Z,33.29
2022-08-02T11:12:13.781Z,32.91
2022-08-02T11:14:43.688Z,32.07
2022-08-02T11:17:17.744Z,31.74
2022-08-02T11:20:12.870Z,32.29
2022-08-02T11:22:41.606Z,31.79
2022-08-02T11:25:24.493Z,31.91
2022-08-02T11:28:09.173Z,31.88
2022-08-02T11:30:37.645Z,32.37
2022-08-02T11:33:06.013Z,32.28
2022-08-02T11:35:39.013Z,32.29
2022-08-02T11:38:17.962Z,32.31
2022-08-02T11:40:46.986Z,31.82
2022-08-02T11:43:22.511Z,31.91
2022-08-02T11:45:52.669Z,31.87
2022-08-02T11:48:39.226Z,31.82
2022-08-02T11:51:15.912Z,31.72
2022-08-02T11:53:52.551Z,32.12
2022-08-02T11:56:28.497Z,32.02
2022-08-02T11:59:09.630Z,32.24
2022-08-02T12:01:45.083Z,32.13
2022-08-02T12:04:22.914Z,31.89
2022-08-02T12:06:58.848Z,32.16
2022-08-02T12:09:36.943Z,32.34
2022-08-02T12:12:08.251Z,32.97
2022-08-02T12:14:44.271Z,32.51
2022-08-02T12:17:30.553Z,33.20
2022-08-02T12:19:57.998Z,33.01
2022-08-02T12:22:27.809Z,33.32
2022-08-02T12:24:57.826Z,32.95
2022-08-02T12:27:32.733Z,32.85
2022-08-02T12:30:02.810Z,32.57
2022-08-02T12:32:30.717Z,32.45
2022-08-02T12:35:26.851Z,32.74
2022-08-02T12:37:56.519Z,32.96
2022-08-02T12:40:31.498Z,33.40
2022-08-02T12:43:05.339Z,32.54
2022-08-02T12:45:48.709Z,32.72
2022-08-02T12:48:36.639Z,33.37
2022-08-02T12:51:23.655Z,33.29
2022-08-02T12:54:00.002Z,33.18
2022-08-02T12:56:32.131Z,32.46
2022-08-02T12:58:59.979Z,32.30
2022-08-02T13:01:29.425Z,32.46
2022-08-02T13:04:09.811Z,32.09
2022-08-02T13:06:44.904Z,32.37
2022-08-02T13:09:15.635Z,33.11
2022-08-02T13:11:44.182Z,32.44
2022-08-02T13:14:13.310Z,32.60
2022-08-02T13:16:41.923Z,32.73
2022-08-02T13:19:09.474Z,33.12
2022-08-02T13:21:41.396Z,33.36
2022-08-02T13:24:38.179Z,33.35
2022-08-02T13:27:08.538Z,33.41
2022-08-02T13:29:39.787Z,33.54
2022-08-02T13:32:07.306Z,33.61
2022-08-02T13:34:34.898Z,33.19
2022-08-02T13:37:03.962Z,33.31
2022-08-02T13:39:31.224Z,33.26
2022-08-02T13:41:58.679Z,33.56
2022-08-02T13:44:26.180Z,33.41
2022-08-02T13:46:53.801Z,33.79
2022-08-02T13:49:21.650Z,33.70
2022-08-02T13:51:50.654Z,34.13
2022-08-02T13:54:18.029Z,34.22
2022-08-02T13:56:45.675Z,34.21
2022-08-02T13:59:54.809Z,34.64
2022-08-02T14:02:01.185Z,34.70
2022-08-02T14:04:31.157Z,34.76
2022-08-02T14:06:59.211Z,34.88
2022-08-02T14:09:27.171Z,34.96
2022-08-02T14:11:54.853Z,35.04
2022-08-02T14:14:22.216Z,35.22
2022-08-02T14:16:49.764Z,34.76
2022-08-02T14:19:17.568Z,34.66
2022-08-02T14:21:47.183Z,34.56
2022-08-02T14:24:20.046Z,34.81
2022-08-02T14:26:50.175Z,34.78
2022-08-02T14:29:18.453Z,34.77
2022-08-02T14:31:46.336Z,35.23
2022-08-02T14:34:14.356Z,35.97
2022-08-02T14:36:41.788Z,36.10
2022-08-02T14:39:09.675Z,35.70
2022-08-02T14:41:59.801Z,35.64
2022-08-02T14:44:25.538Z,35.31
2022-08-02T14:46:53.173Z,36.36
2022-08-02T14:49:25.485Z,36.64
2022-08-02T14:51:54.995Z,36.01
2022-08-02T14:54:27.834Z,36.34
2022-08-02T14:57:02.655Z,35.89
2022-08-02T14:59:30.480Z,35.77
2022-08-02T15:01:58.875Z,36.12
2022-08-02T15:04:26.895Z,35.72
2022-08-02T15:06:55.134Z,35.80
2022-08-02T15:09:22.905Z,35.83
2022-08-02T15:11:50.902Z,36.19
2022-08-02T15:14:21.960Z,35.82
2022-08-02T15:16:57.941Z,35.94
2022-08-02T15:19:55.864Z,35.92
2022-08-02T15:22:19.247Z,35.75
2022-08-02T15:24:48.508Z,35.73
2022-08-02T15:27:17.264Z,35.76
2022-08-02T15:29:46.766Z,35.35
2022-08-02T15:32:18.956Z,35.57
2022-08-02T15:34:47.030Z,35.74
2022-08-02T15:37:14.429Z,36.25
2022-08-02T15:39:42.233Z,36.11
2022-08-02T15:42:09.827Z,36.18
2022-08-02T15:44:37.737Z,35.95
2022-08-02T15:47:08.677Z,36.86
2022-08-02T15:49:41.041Z,36.71
2022-08-02T15:52:09.851Z,36.37
2022-08-02T15:54:37.618Z,36.46
2022-08-02T15:57:05.151Z,36.28
2022-08-02T15:59:33.122Z,36.68
2022-08-02T16:02:00.749Z,36.58
2022-08-02T16:04:28.192Z,36.58
2022-08-02T16:06:56.089Z,36.54
2022-08-02T16:09:23.587Z,36.30
2022-08-02T16:11:50.921Z,36.65
2022-08-02T16:14:18.913Z,36.76
2022-08-02T16:16:46.436Z,37.59
2022-08-02T16:19:46.099Z,38.04
2022-08-02T16:22:01.515Z,38.64
2022-08-02T16:24:29.364Z,38.02
2022-08-02T16:26:56.784Z,37.75
2022-08-02T16:29:24.901Z,37.74
2022-08-02T16:31:52.135Z,38.31
2022-08-02T16:34:19.631Z,38.18
2022-08-02T16:36:47.556Z,38.43
2022-08-02T16:39:14.980Z,38.97
2022-08-02T16:41:50.672Z,39.06
2022-08-02T16:44:29.195Z,39.69
2022-08-02T16:47:01.254Z,39.17
2022-08-02T16:50:04.042Z,39.84
2022-08-02T16:52:20.026Z,39.63
2022-08-02T16:54:49.946Z,39.72
2022-08-02T16:57:20.878Z,39.39
2022-08-02T16:59:57.730Z,40.24
2022-08-02T17:02:27.911Z,39.78
2022-08-02T17:04:56.691Z,40.27
2022-08-02T17:08:16.421Z,40.80
2022-08-02T17:10:13.037Z,40.53
2022-08-02T17:12:41.403Z,40.74
2022-08-02T17:16:07.900Z,40.66
2022-08-02T17:17:58.480Z,40.93
2022-08-02T17:20:26.079Z,40.48
2022-08-02T17:22:53.983Z,41.36
2022-08-02T17:25:24.815Z,42.55
2022-08-02T17:27:55.572Z,42.21
2022-08-02T17:30:26.686Z,42.65
2022-08-02T17:32:57.579Z,42.30
2022-08-02T17:35:43.409Z,43.19
2022-08-02T17:38:26.372Z,43.55
2022-08-02T17:40:57.867Z,44.25
2022-08-02T17:43:29.457Z,45.69
2022-08-02T17:46:00.931Z,46.40
2022-08-02T17:48:50.176Z,46.28
2022-08-02T17:52:14.936Z,46.55
2022-08-02T17:54:18.886Z,47.06
2022-08-02T17:56:49.664Z,47.04
2022-08-02T17:59:20.917Z,47.40
2022-08-02T18:02:01.090Z,47.58
2022-08-02T18:04:37.405Z,47.82
2022-08-02T18:09:56.099Z,48.70
2022-08-02T18:12:23.853Z,49.17
2022-08-02T18:14:52.632Z,49.85
2022-08-02T18:17:32.999Z,49.74
2022-08-02T18:20:11.137Z,50.45
2022-08-02T18:22:44.979Z,51.00
2022-08-02T18:28:12.275Z,51.54
2022-08-02T18:30:40.716Z,51.97
2022-08-02T18:33:54.641Z,52.18
2022-08-02T18:35:59.048Z,52.16
2022-08-02T18:38:28.694Z,52.34
2022-08-02T18:40:59.107Z,52.60
2022-08-02T18:43:29.282Z,53.01
2022-08-02T18:46:07.035Z,53.42
2022-08-02T18:48:46.643Z,53.67
2022-08-02T18:51:19.963Z,53.56
2022-08-02T18:53:53.636Z,54.30
2022-08-02T18:56:24.997Z,54.83
2022-08-02T18:58:54.695Z,54.82
2022-08-02T19:01:33.951Z,55.10
2022-08-02T19:04:05.556Z,55.58
2022-08-02T19:06:37.125Z,55.23
2022-08-02T19:09:13.236Z,55.48
2022-08-02T19:12:01.839Z,55.34
2022-08-02T19:14:31.241Z,55.95
2022-08-02T19:17:16.018Z,56.43
2022-08-02T19:19:55.174Z,56.42
2022-08-02T19:22:23.558Z,56.65
2022-08-02T19:24:59.949Z,57.08
2022-08-02T19:27:33.288Z,57.27
2022-08-02T19:30:04.311Z,57.56
2022-08-02T19:32:42.457Z,58.03
2022-08-02T19:35:30.846Z,58.14
2022-08-02T19:38:11.747Z,57.59
2022-08-02T19:40:42.148Z,57.77
2022-08-02T19:44:25.924Z,58.17
2022-08-02T19:45:58.842Z,58.59
2022-08-02T19:48:28.207Z,59.52
2022-08-02T19:51:00.866Z,59.29
2022-08-02T19:53:47.299Z,59.23
2022-08-02T19:56:20.903Z,59.12
2022-08-02T19:58:54.400Z,58.86
2022-08-02T20:04:13.572Z,59.01
2022-08-02T20:06:45.408Z,58.99
2022-08-02T20:09:21.508Z,59.00
2022-08-02T20:11:54.354Z,58.83
2022-08-02T20:14:27.595Z,58.94
2022-08-02T20:16:58.866Z,59.29
2022-08-02T20:19:28.910Z,59.41
2022-08-02T20:21:59.715Z,59.49
2022-08-02T20:24:28.800Z,59.65
2022-08-02T20:29:48.769Z,59.97
2022-08-02T20:32:23.866Z,59.91
2022-08-02T20:34:52.385Z,60.09
2022-08-02T20:37:59.224Z,60.23
2022-08-02T20:40:09.416Z,60.26
2022-08-02T20:42:37.685Z,60.72
2022-08-02T20:45:07.227Z,60.88
2022-08-02T20:47:39.206Z,60.75
2022-08-02T20:50:31.849Z,60.98
2022-08-02T20:53:00.953Z,61.22
2022-08-02T20:55:31.008Z,61.04
2022-08-02T20:58:01.721Z,61.65
2022-08-02T21:00:31.983Z,61.69
2022-08-02T21:03:04.310Z,62.20
2022-08-02T21:05:54.374Z,62.15
2022-08-02T21:08:21.247Z,62.34
2022-08-02T21:10:51.805Z,62.73
2022-08-02T21:13:26.887Z,62.86
2022-08-02T21:15:55.169Z,62.98
2022-08-02T21:18:33.340Z,62.69
2022-08-02T21:21:10.051Z,62.94
2022-08-02T21:23:38.202Z,63.05
2022-08-02T21:26:09.044Z,62.97
2022-08-02T21:28:43.490Z,63.07
2022-08-02T21:31:14.920Z,62.79
2022-08-02T21:33:58.097Z,62.69
2022-08-02T21:36:31.910Z,62.54
2022-08-02T21:39:09.148Z,62.84
2022-08-02T21:41:46.700Z,62.49
2022-08-02T21:44:16.984Z,62.38
2022-08-02T21:46:50.183Z,62.09
2022-08-02T21:49:40.880Z,62.07
2022-08-02T21:52:09.269Z,62.41
2022-08-02T21:54:40.516Z,62.17
2022-08-02T21:57:15.235Z,62.43
2022-08-02T21:59:45.906Z,62.29
2022-08-02T22:02:14.859Z,62.36
2022-08-02T22:04:47.599Z,62.50
2022-08-02T22:07:23.795Z,63.03
2022-08-02T22:09:52.948Z,63.21
2022-08-02T22:12:21.960Z,63.45
2022-08-02T22:14:55.759Z,63.63
2022-08-02T22:17:51.778Z,63.83
2022-08-02T22:20:19.614Z,63.87
2022-08-02T22:22:50.339Z,63.80
2022-08-02T22:25:26.327Z,64.02
2022-08-02T22:28:36.139Z,64.09
2022-08-02T22:30:52.938Z,64.16
2022-08-02T22:33:42.481Z,64.39
2022-08-02T22:36:15.441Z,64.50
2022-08-02T22:38:46.896Z,64.81
2022-08-02T22:41:15.261Z,64.96
2022-08-02T22:43:43.583Z,64.74
2022-08-02T22:46:15.290Z,65.20
2022-08-02T22:48:44.750Z,65.11
2022-08-02T22:51:14.645Z,65.33
2022-08-02T22:53:44.062Z,65.21
2022-08-02T22:56:14.722Z,65.70
2022-08-02T22:58:43.324Z,48.50
2022-08-02T22:58:54.159Z,58.95
2022-08-02T22:58:59.048Z,51.39
2022-08-02T22:59:07.886Z,59.73
2022-08-02T23:01:33.428Z,65.80
2022-08-02T23:04:01.062Z,65.83
2022-08-02T23:06:28.340Z,65.86
2022-08-02T23:08:55.825Z,65.68
2022-08-02T23:11:24.140Z,65.62
2022-08-02T23:13:51.845Z,65.52
2022-08-02T23:16:39.406Z,66.12
2022-08-02T23:19:25.061Z,66.09
2022-08-02T23:22:01.707Z,66.25
2022-08-02T23:24:33.720Z,66.14
2022-08-02T23:27:02.179Z,66.12
2022-08-02T23:29:29.520Z,66.01
2022-08-02T23:31:56.867Z,65.90
2022-08-02T23:34:26.937Z,66.08
2022-08-02T23:36:54.379Z,66.08
2022-08-02T23:39:22.115Z,65.97
2022-08-02T23:41:55.023Z,66.31
2022-08-02T23:44:24.416Z,66.58
2022-08-02T23:46:52.947Z,66.71
2022-08-02T23:49:21.423Z,66.71
2022-08-02T23:51:50.790Z,66.69
2022-08-02T23:54:19.630Z,66.54
2022-08-02T23:56:47.545Z,66.87
2022-08-02T23:59:16.486Z,66.58
